Time;durP1;ratioP1;P1;durP2;ratioP2;P2;SDS_P1;SDS_P2;PMS_P1;PMS_P2;Temp;Humidity;BMP_temperature;BMP_pressure;BME280_temperature;BME280_humidity;BME280_pressure;Samples;Min_cycle;Max_cycle;Signal;HPM_P1;HPM_P2
2021/09/17 00:02:32;;;;;;;17.45;11.40;;;25.40;66.90;;;;;;6176065;28;83466;-62
2021/09/17 00:05:32;;;;;;;17.73;12.10;;;25.40;66.70;;;;;;6172761;28;82758;-62
2021/09/17 00:08:33;;;;;;;22.75;12.13;;;25.40;66.80;;;;;;6181975;28;83399;-62
2021/09/17 00:11:33;;;;;;;15.93;11.48;;;25.40;66.70;;;;;;6180136;28;83247;-62
2021/09/17 00:14:34;;;;;;;15.27;11.45;;;25.40;66.80;;;;;;6181716;28;83974;-62
2021/09/17 00:17:34;;;;;;;19.60;12.05;;;25.40;66.80;;;;;;6180333;28;83028;-62
2021/09/17 00:20:35;;;;;;;14.85;11.43;;;25.40;66.80;;;;;;6179659;28;83296;-62
2021/09/17 00:23:36;;;;;;;17.08;11.93;;;25.40;66.80;;;;;;6183431;28;89267;-62
2021/09/17 00:26:36;;;;;;;17.48;12.15;;;25.40;66.70;;;;;;6181022;28;85589;-62
2021/09/17 00:29:37;;;;;;;16.70;12.05;;;25.40;66.70;;;;;;6183931;28;83731;-62
2021/09/17 00:32:37;;;;;;;14.25;11.20;;;25.40;66.80;;;;;;6180077;28;84197;-62
2021/09/17 00:35:37;;;;;;;17.67;11.93;;;25.30;66.70;;;;;;6180298;28;84370;-62
2021/09/17 00:38:38;;;;;;;16.30;11.73;;;25.40;66.90;;;;;;6180651;28;82849;-62
2021/09/17 00:41:38;;;;;;;16.27;10.60;;;25.40;66.80;;;;;;6179034;28;83031;-61
2021/09/17 00:44:39;;;;;;;15.50;11.13;;;25.30;66.60;;;;;;6178849;28;83224;-62
2021/09/17 00:47:39;;;;;;;14.45;10.55;;;25.30;66.70;;;;;;6177172;28;83181;-62
2021/09/17 00:50:40;;;;;;;15.77;11.38;;;25.30;66.70;;;;;;6181375;28;83191;-62
2021/09/17 00:53:40;;;;;;;14.63;10.98;;;25.30;66.70;;;;;;6180325;28;83247;-62
2021/09/17 00:56:41;;;;;;;14.30;11.07;;;25.40;66.80;;;;;;6181846;28;83060;-63
2021/09/17 00:59:41;;;;;;;17.88;11.63;;;25.30;66.80;;;;;;6182392;28;84013;-63
2021/09/17 01:02:42;;;;;;;15.32;11.25;;;25.40;66.80;;;;;;6178333;28;83433;-63
2021/09/17 01:05:42;;;;;;;15.02;11.30;;;25.40;66.80;;;;;;6179367;28;83433;-63
2021/09/17 01:08:43;;;;;;;13.20;10.45;;;25.30;66.70;;;;;;6178365;28;83375;-63
2021/09/17 01:11:43;;;;;;;16.05;10.80;;;25.30;66.80;;;;;;6178582;28;85611;-62
2021/09/17 01:14:44;;;;;;;12.30;10.50;;;25.40;66.80;;;;;;6180171;28;83282;-62
2021/09/17 01:17:45;;;;;;;15.13;9.85;;;25.40;66.90;;;;;;6180591;28;82891;-62
2021/09/17 01:20:45;;;;;;;13.45;10.30;;;25.30;66.70;;;;;;6180652;28;86637;-63
2021/09/17 01:23:46;;;;;;;17.05;10.20;;;25.30;66.80;;;;;;6180189;28;88545;-63
2021/09/17 01:26:46;;;;;;;17.05;10.60;;;25.30;66.70;;;;;;6179987;28;83767;-63
2021/09/17 01:29:47;;;;;;;14.45;10.40;;;25.30;66.70;;;;;;6177812;28;84011;-63
2021/09/17 01:32:47;;;;;;;15.13;10.77;;;25.30;66.70;;;;;;6176603;28;83515;-63
2021/09/17 01:35:48;;;;;;;13.55;10.15;;;25.30;66.80;;;;;;6180765;28;83132;-62
2021/09/17 01:38:48;;;;;;;14.75;9.75;;;25.30;66.60;;;;;;6171820;28;83444;-62
2021/09/17 01:41:49;;;;;;;13.40;10.48;;;25.30;66.70;;;;;;6176167;28;83098;-62
2021/09/17 01:44:49;;;;;;;14.57;10.18;;;25.30;66.80;;;;;;6178017;28;83032;-62
2021/09/17 01:47:49;;;;;;;13.35;10.23;;;25.30;66.80;;;;;;6179352;28;83176;-63
2021/09/17 01:50:50;;;;;;;13.73;10.02;;;25.30;66.70;;;;;;6176779;28;83165;-62
2021/09/17 01:53:50;;;;;;;13.00;10.18;;;25.30;66.70;;;;;;6177710;28;82965;-63
2021/09/17 01:56:51;;;;;;;12.73;10.20;;;25.30;66.80;;;;;;6171803;28;85211;-62
2021/09/17 01:59:51;;;;;;;12.30;9.15;;;25.30;66.70;;;;;;6179173;28;84001;-62
2021/09/17 02:02:52;;;;;;;14.10;10.23;;;25.30;66.70;;;;;;6171858;28;84309;-62
2021/09/17 02:05:52;;;;;;;15.48;10.02;;;25.30;66.70;;;;;;6178977;28;82959;-62
2021/09/17 02:08:53;;;;;;;13.30;10.23;;;25.30;66.70;;;;;;6179823;28;82965;-63
2021/09/17 02:11:53;;;;;;;14.85;10.60;;;25.30;66.70;;;;;;6180166;28;85420;-62
2021/09/17 02:14:54;;;;;;;14.05;10.30;;;25.30;66.70;;;;;;6173265;28;84077;-62
2021/09/17 02:17:54;;;;;;;14.75;9.65;;;25.30;66.60;;;;;;6170212;28;85957;-63
2021/09/17 02:20:55;;;;;;;16.67;10.25;;;25.30;66.60;;;;;;6169707;28;82994;-62
2021/09/17 02:23:55;;;;;;;12.85;10.25;;;25.30;66.60;;;;;;6171420;28;82962;-62
2021/09/17 02:26:56;;;;;;;15.18;9.77;;;25.30;66.60;;;;;;6173908;28;83824;-62
2021/09/17 02:29:56;;;;;;;16.92;11.20;;;25.30;66.60;;;;;;6180657;28;81757;-62
2021/09/17 02:32:57;;;;;;;13.65;10.05;;;25.30;66.60;;;;;;6178131;28;83553;-62
2021/09/17 02:35:57;;;;;;;13.13;10.00;;;25.30;66.60;;;;;;6179746;28;83124;-61
2021/09/17 02:38:58;;;;;;;13.15;9.48;;;25.30;66.70;;;;;;6178701;28;83509;-62
2021/09/17 02:41:58;;;;;;;16.60;9.88;;;25.30;66.60;;;;;;6177418;28;85610;-62
2021/09/17 02:44:58;;;;;;;14.55;9.60;;;25.30;66.60;;;;;;6182654;28;81333;-62
2021/09/17 02:47:59;;;;;;;12.35;10.27;;;25.30;66.60;;;;;;6181449;28;80549;-63
2021/09/17 02:50:59;;;;;;;16.25;10.25;;;25.30;66.50;;;;;;6179194;28;83430;-63
2021/09/17 02:54:00;;;;;;;12.95;10.13;;;25.30;66.50;;;;;;6180344;28;83269;-63
2021/09/17 02:57:01;;;;;;;13.80;10.52;;;25.30;66.50;;;;;;6170840;28;83519;-62
2021/09/17 03:00:02;;;;;;;13.48;9.85;;;25.30;66.50;;;;;;6172934;28;84112;-62
2021/09/17 03:03:02;;;;;;;14.63;10.10;;;25.30;66.60;;;;;;6177821;28;83194;-63
2021/09/17 03:06:02;;;;;;;14.70;11.00;;;25.30;66.40;;;;;;6178260;28;83738;-63
2021/09/17 03:09:03;;;;;;;14.00;10.57;;;25.30;66.30;;;;;;6180075;28;82870;-62
2021/09/17 03:12:04;;;;;;;13.55;10.00;;;25.30;66.40;;;;;;6177810;28;83536;-63
2021/09/17 03:15:04;;;;;;;16.83;10.30;;;25.30;66.30;;;;;;6173997;28;84824;-62
2021/09/17 03:18:05;;;;;;;15.32;9.48;;;25.30;66.30;;;;;;6172114;28;84194;-62
2021/09/17 03:21:05;;;;;;;15.15;10.02;;;25.30;66.30;;;;;;6179864;28;84238;-63
2021/09/17 03:24:05;;;;;;;14.75;10.40;;;25.30;66.10;;;;;;6176464;28;85356;-63
2021/09/17 03:27:06;;;;;;;12.55;10.25;;;25.30;66.30;;;;;;6173894;28;83551;-63
2021/09/17 03:30:06;;;;;;;14.82;10.05;;;25.30;66.90;;;;;;6178318;28;83575;-63
2021/09/17 03:33:09;;;;;;;14.55;10.23;;;25.30;66.00;;;;;;6178281;28;82983;-62
2021/09/17 03:36:10;;;;;;;14.07;10.73;;;25.30;66.10;;;;;;6177908;28;83209;-62
2021/09/17 03:39:11;;;;;;;15.85;11.20;;;25.30;66.00;;;;;;6167141;28;83688;-62
2021/09/17 03:42:11;;;;;;;13.65;9.73;;;25.30;66.00;;;;;;6166344;28;83548;-62
2021/09/17 03:45:12;;;;;;;16.20;11.10;;;25.30;66.00;;;;;;6181316;28;82884;-63
2021/09/17 03:48:12;;;;;;;15.20;10.45;;;25.30;65.80;;;;;;6177240;28;82842;-64
2021/09/17 03:51:13;;;;;;;15.13;10.52;;;25.30;66.10;;;;;;6188830;28;83192;-62
2021/09/17 03:54:13;;;;;;;17.70;13.07;;;25.30;66.00;;;;;;6176468;28;84118;-62
2021/09/17 03:57:14;;;;;;;14.07;11.30;;;25.30;65.90;;;;;;6192096;28;83527;-62
2021/09/17 04:00:14;;;;;;;16.15;11.63;;;25.20;65.90;;;;;;6178027;28;83402;-62
2021/09/17 04:03:15;;;;;;;15.20;11.18;;;25.30;66.00;;;;;;6177690;28;83644;-63
2021/09/17 04:06:16;;;;;;;16.73;10.55;;;25.30;66.00;;;;;;6178133;28;88062;-63
2021/09/17 04:09:16;;;;;;;17.13;11.30;;;25.30;66.10;;;;;;6171158;28;83048;-64
2021/09/17 04:12:17;;;;;;;15.13;10.85;;;25.30;65.90;;;;;;6176656;28;83393;-63
2021/09/17 04:15:17;;;;;;;56.22;22.08;;;25.30;65.80;;;;;;6175521;28;82974;-62
2021/09/17 04:18:18;;;;;;;487.13;170.25;;;25.30;65.90;;;;;;6184028;28;84229;-62
2021/09/17 04:21:18;;;;;;;644.60;256.92;;;25.30;66.10;;;;;;6165931;28;86547;-62
2021/09/17 04:24:19;;;;;;;596.10;236.27;;;25.30;66.30;;;;;;6169203;28;85627;-63
2021/09/17 04:27:19;;;;;;;550.40;212.10;;;25.30;66.00;;;;;;6176504;28;85649;-63
2021/09/17 04:30:20;;;;;;;487.02;178.20;;;25.30;66.30;;;;;;6166251;28;85951;-64
2021/09/17 04:33:20;;;;;;;460.27;160.07;;;25.30;66.20;;;;;;6176172;28;85894;-63
2021/09/17 04:36:21;;;;;;;397.08;144.20;;;25.30;66.00;;;;;;6170735;28;85429;-63
2021/09/17 04:39:21;;;;;;;541.97;204.27;;;25.40;66.20;;;;;;6173394;28;85946;-63
2021/09/17 04:42:21;;;;;;;645.83;272.85;;;25.30;65.90;;;;;;6176153;28;86230;-64
2021/09/17 04:45:22;;;;;;;692.78;296.05;;;25.30;65.50;;;;;;6173760;28;86698;-64
2021/09/17 04:48:22;;;;;;;622.38;259.00;;;25.30;65.30;;;;;;6174655;28;85568;-64
2021/09/17 04:51:23;;;;;;;578.83;233.32;;;25.40;65.20;;;;;;6172570;28;85457;-63
2021/09/17 04:54:23;;;;;;;517.90;194.90;;;25.30;65.10;;;;;;6178137;28;85561;-64
2021/09/17 04:57:24;;;;;;;445.88;169.45;;;25.30;64.80;;;;;;6174763;28;86881;-64
2021/09/17 05:00:24;;;;;;;395.35;147.05;;;25.30;64.60;;;;;;6173717;28;86175;-64
2021/09/17 05:03:25;;;;;;;360.15;138.00;;;25.30;64.70;;;;;;6172382;28;86467;-63
2021/09/17 05:06:28;;;;;;;322.33;122.85;;;25.40;64.80;;;;;;6177790;28;86155;-64
2021/09/17 05:09:30;;;;;;;294.65;109.00;;;25.40;64.70;;;;;;6176320;28;85590;-65
2021/09/17 05:12:31;;;;;;;268.27;100.03;;;25.30;64.60;;;;;;6175343;28;88590;-64
2021/09/17 05:15:31;;;;;;;244.73;91.50;;;25.30;64.40;;;;;;6174408;28;85946;-64
2021/09/17 05:18:32;;;;;;;217.85;84.05;;;25.30;65.10;;;;;;6176283;28;86366;-64
2021/09/17 05:21:32;;;;;;;206.13;79.55;;;25.30;64.40;;;;;;6177386;28;82803;-64
2021/09/17 05:24:33;;;;;;;203.00;78.90;;;25.30;64.40;;;;;;6176782;28;82988;-64
2021/09/17 05:27:33;;;;;;;176.65;72.72;;;25.40;64.90;;;;;;6177590;28;83937;-64
2021/09/17 05:30:34;;;;;;;163.50;65.75;;;25.30;64.70;;;;;;6174525;28;83136;-64
2021/09/17 05:33:34;;;;;;;145.40;55.38;;;25.30;64.40;;;;;;6177242;28;84095;-64
2021/09/17 05:36:34;;;;;;;132.43;56.35;;;25.30;64.10;;;;;;6179527;28;83359;-63
2021/09/17 05:39:35;;;;;;;118.28;46.42;;;25.40;63.80;;;;;;6166966;28;83549;-65
2021/09/17 05:42:35;;;;;;;106.28;43.55;;;25.40;63.30;;;;;;6191206;28;83424;-63
2021/09/17 05:45:36;;;;;;;111.65;42.17;;;25.30;63.30;;;;;;6178116;28;86361;-63
2021/09/17 05:48:36;;;;;;;74.40;32.97;;;25.30;62.50;;;;;;6178145;28;83282;-64
2021/09/17 05:51:37;;;;;;;79.07;30.20;;;25.30;62.90;;;;;;6175734;28;83015;-62
2021/09/17 05:54:39;;;;;;;73.47;28.58;;;25.40;62.30;;;;;;6178028;28;84196;-63
2021/09/17 05:57:39;;;;;;;64.38;28.45;;;25.40;61.70;;;;;;6172769;28;84292;-63
2021/09/17 06:00:39;;;;;;;63.30;24.60;;;25.30;61.40;;;;;;6178569;28;83821;-63
2021/09/17 06:03:41;;;;;;;52.58;23.00;;;25.30;61.10;;;;;;6173102;28;83222;-63
2021/09/17 06:06:42;;;;;;;53.53;22.25;;;25.30;60.80;;;;;;6174633;28;83256;-64
2021/09/17 06:09:42;;;;;;;41.83;16.73;;;25.30;60.90;;;;;;6175790;28;82867;-64
2021/09/17 06:12:43;;;;;;;36.55;14.25;;;25.30;60.30;;;;;;6175025;28;83417;-64
2021/09/17 06:15:43;;;;;;;32.03;13.68;;;25.30;60.30;;;;;;6173552;28;83255;-63
2021/09/17 06:18:44;;;;;;;28.63;12.10;;;25.30;59.90;;;;;;6168618;28;83388;-63
2021/09/17 06:21:44;;;;;;;24.02;10.98;;;25.30;59.80;;;;;;6170091;28;83037;-65
2021/09/17 06:24:44;;;;;;;26.48;10.65;;;25.30;59.50;;;;;;6177042;28;83635;-63
2021/09/17 06:27:45;;;;;;;21.40;9.35;;;25.30;59.70;;;;;;6168791;28;83338;-63
2021/09/17 06:30:45;;;;;;;21.80;9.45;;;25.30;59.30;;;;;;6179978;28;83477;-63
2021/09/17 06:33:46;;;;;;;19.52;9.85;;;25.30;59.80;;;;;;6181207;28;81619;-62
2021/09/17 06:36:46;;;;;;;17.65;7.72;;;25.30;59.90;;;;;;6182465;28;81041;-63
2021/09/17 06:39:47;;;;;;;15.88;7.85;;;25.30;59.80;;;;;;6181858;28;80850;-63
2021/09/17 06:42:48;;;;;;;16.90;7.93;;;25.30;59.60;;;;;;6177867;28;80939;-63
2021/09/17 06:45:48;;;;;;;13.35;7.28;;;25.30;59.80;;;;;;6176154;28;81853;-63
2021/09/17 06:48:49;;;;;;;16.02;7.65;;;25.30;60.00;;;;;;6171837;28;80528;-63
2021/09/17 06:51:49;;;;;;;12.05;6.90;;;25.30;59.90;;;;;;6173379;28;82279;-64
2021/09/17 06:54:50;;;;;;;13.60;6.03;;;25.30;59.70;;;;;;6161522;28;81417;-64
2021/09/17 06:57:50;;;;;;;13.98;6.40;;;25.30;59.50;;;;;;6180518;28;80594;-63
2021/09/17 07:00:51;;;;;;;9.48;5.25;;;25.30;59.50;;;;;;6183955;28;80469;-64
2021/09/17 07:03:51;;;;;;;9.30;5.10;;;25.20;59.30;;;;;;6180720;28;80820;-64
2021/09/17 07:06:51;;;;;;;10.15;4.43;;;25.20;59.00;;;;;;6172285;28;80712;-64
2021/09/17 07:09:52;;;;;;;8.23;4.53;;;25.20;58.90;;;;;;6175110;28;81618;-63
2021/09/17 07:12:52;;;;;;;8.77;4.10;;;25.20;59.30;;;;;;6175653;28;80839;-63
2021/09/17 07:15:53;;;;;;;7.53;3.63;;;25.30;59.50;;;;;;6175714;28;80292;-63
2021/09/17 07:18:53;;;;;;;6.55;3.72;;;25.30;59.30;;;;;;6175810;28;81246;-62
2021/09/17 07:21:54;;;;;;;7.25;3.85;;;25.30;59.40;;;;;;6162712;28;81264;-62
2021/09/17 07:24:54;;;;;;;8.15;3.45;;;25.30;59.60;;;;;;6163216;28;80397;-63
2021/09/17 07:27:55;;;;;;;7.97;4.00;;;25.20;59.30;;;;;;6172443;28;80778;-62
2021/09/17 07:30:55;;;;;;;11.55;3.25;;;25.30;59.20;;;;;;6175421;28;80371;-62
2021/09/17 07:33:56;;;;;;;8.98;3.67;;;25.30;59.00;;;;;;6176489;28;80542;-62
2021/09/17 07:36:56;;;;;;;6.15;3.72;;;25.20;58.60;;;;;;6171742;28;81898;-63
2021/09/17 07:39:57;;;;;;;6.90;4.15;;;25.20;58.40;;;;;;6180180;28;81396;-61
2021/09/17 07:42:57;;;;;;;7.43;3.75;;;25.20;58.20;;;;;;6183603;28;81793;-61
2021/09/17 07:45:58;;;;;;;6.65;3.42;;;25.20;58.10;;;;;;6176003;28;81477;-63
2021/09/17 07:48:58;;;;;;;4.60;3.05;;;25.20;57.90;;;;;;6171769;28;80122;-63
2021/09/17 07:51:59;;;;;;;5.75;3.38;;;25.20;57.90;;;;;;6165105;28;80506;-63
2021/09/17 07:54:59;;;;;;;5.00;2.83;;;25.20;58.00;;;;;;6173848;28;80780;-62
2021/09/17 07:57:59;;;;;;;5.50;2.83;;;25.20;57.90;;;;;;6177700;28;81356;-61
2021/09/17 08:01:00;;;;;;;4.18;2.30;;;25.20;57.40;;;;;;6173746;28;80524;-61
2021/09/17 08:04:00;;;;;;;5.22;3.28;;;25.20;57.30;;;;;;6184861;28;80441;-63
2021/09/17 08:07:01;;;;;;;9.65;3.40;;;25.10;57.10;;;;;;6177193;28;81559;-62
2021/09/17 08:10:01;;;;;;;7.40;3.67;;;25.10;57.20;;;;;;6177785;28;80381;-62
2021/09/17 08:13:02;;;;;;;5.50;3.72;;;25.10;57.30;;;;;;6184647;28;80585;-63
2021/09/17 08:16:02;;;;;;;3.10;2.63;;;25.10;57.80;;;;;;6179428;28;80360;-61
2021/09/17 08:19:03;;;;;;;5.63;2.63;;;25.10;57.70;;;;;;6181814;28;81641;-61
2021/09/17 08:22:04;;;;;;;5.63;2.58;;;25.10;57.70;;;;;;6183112;28;80306;-62
2021/09/17 08:25:04;;;;;;;4.32;2.40;;;25.10;57.50;;;;;;6178161;28;83301;-61
2021/09/17 08:28:05;;;;;;;3.97;2.60;;;25.10;57.50;;;;;;6181139;28;80371;-62
2021/09/17 08:31:05;;;;;;;2.95;2.20;;;25.10;57.50;;;;;;6178620;28;81536;-62
2021/09/17 08:34:06;;;;;;;3.85;2.20;;;25.20;57.40;;;;;;6181800;28;80818;-61
2021/09/17 08:37:09;;;;;;;3.38;2.35;;;25.20;56.90;;;;;;6180870;28;81481;-62
2021/09/17 08:40:10;;;;;;;16.88;2.30;;;25.20;57.20;;;;;;6176221;28;80527;-62
2021/09/17 08:43:11;;;;;;;10.15;2.40;;;25.10;56.90;;;;;;6179692;28;83294;-62
2021/09/17 08:46:11;;;;;;;25.08;2.25;;;25.20;56.90;;;;;;6179458;28;81308;-62
2021/09/17 08:49:12;;;;;;;3.22;2.53;;;25.20;57.10;;;;;;6179455;28;81024;-62
2021/09/17 08:52:13;;;;;;;2.35;2.00;;;25.20;57.30;;;;;;6180007;28;80874;-62
2021/09/17 08:55:15;;;;;;;11.90;2.30;;;25.20;56.90;;;;;;6177577;28;81153;-62
2021/09/17 08:58:15;;;;;;;32.47;2.58;;;25.10;56.80;;;;;;6177527;28;80630;-61
2021/09/17 09:01:16;;;;;;;2.97;1.70;;;25.20;57.10;;;;;;6175208;28;80818;-63
2021/09/17 09:04:18;;;;;;;5.25;1.70;;;25.20;57.20;;;;;;6180678;28;80591;-61
2021/09/17 09:07:19;;;;;;;3.03;1.90;;;25.20;57.20;;;;;;6177033;28;80862;-62
2021/09/17 09:10:19;;;;;;;11.48;1.55;;;25.10;57.20;;;;;;6173651;28;80708;-62
2021/09/17 09:13:19;;;;;;;2.38;1.63;;;25.20;57.20;;;;;;6177129;28;80921;-61
2021/09/17 09:16:20;;;;;;;2.83;1.90;;;25.20;57.10;;;;;;6179085;28;81475;-63
2021/09/17 09:19:20;;;;;;;4.53;1.60;;;25.10;56.70;;;;;;6180593;28;81063;-61
2021/09/17 09:22:21;;;;;;;1.50;1.38;;;25.10;56.50;;;;;;6183204;28;82444;-63
2021/09/17 09:25:21;;;;;;;4.28;1.70;;;25.10;56.80;;;;;;6182267;28;80299;-63
2021/09/17 09:28:22;;;;;;;1.83;1.40;;;25.10;56.80;;;;;;6172666;28;83100;-63
2021/09/17 09:31:22;;;;;;;5.13;1.48;;;25.20;56.80;;;;;;6180951;28;80417;-63
2021/09/17 09:34:24;;;;;;;2.08;1.60;;;25.10;56.50;;;;;;6180076;28;80755;-62
2021/09/17 09:37:25;;;;;;;2.75;1.83;;;25.20;56.50;;;;;;6174995;28;81661;-63
2021/09/17 09:40:26;;;;;;;3.35;1.60;;;25.10;56.50;;;;;;6177433;28;80618;-63
2021/09/17 09:43:26;;;;;;;2.15;1.77;;;25.10;56.40;;;;;;6181459;28;80651;-63
2021/09/17 09:46:27;;;;;;;2.97;2.13;;;25.10;56.50;;;;;;6183032;28;80691;-63
2021/09/17 09:49:29;;;;;;;6.47;2.85;;;25.10;56.50;;;;;;6182392;28;80818;-63
2021/09/17 09:52:29;;;;;;;4.68;2.63;;;25.10;56.80;;;;;;6183880;28;80637;-63
2021/09/17 09:55:30;;;;;;;7.78;2.70;;;25.10;56.50;;;;;;6178718;28;81571;-62
2021/09/17 09:58:30;;;;;;;7.07;2.78;;;25.10;57.00;;;;;;6180976;28;81472;-62
2021/09/17 10:01:31;;;;;;;4.47;2.63;;;25.10;57.00;;;;;;6178411;28;80558;-62
2021/09/17 10:04:31;;;;;;;3.47;2.47;;;25.10;57.40;;;;;;6175039;28;80849;-62
2021/09/17 10:07:32;;;;;;;8.10;2.40;;;25.10;57.40;;;;;;6182976;28;80571;-62
2021/09/17 10:10:32;;;;;;;6.03;2.47;;;25.10;57.60;;;;;;6181795;28;81037;-62
2021/09/17 10:13:33;;;;;;;4.97;3.05;;;25.10;57.50;;;;;;6182478;28;80385;-62
2021/09/17 10:16:33;;;;;;;4.68;2.78;;;25.10;57.40;;;;;;6180055;28;82889;-62
2021/09/17 10:19:34;;;;;;;5.32;2.88;;;25.10;57.30;;;;;;6172333;28;80460;-62
2021/09/17 10:22:34;;;;;;;3.85;2.60;;;25.10;57.10;;;;;;6180728;28;81051;-62
2021/09/17 10:25:35;;;;;;;4.57;2.65;;;25.10;56.90;;;;;;6173049;28;81239;-61
2021/09/17 10:28:35;;;;;;;5.13;2.60;;;25.10;56.70;;;;;;6183677;28;81184;-63
2021/09/17 10:31:36;;;;;;;3.78;2.80;;;25.10;57.20;;;;;;6176297;28;81757;-62
2021/09/17 10:34:39;;;;;;;4.78;2.45;;;25.10;57.00;;;;;;6180377;28;80877;-63
2021/09/17 10:37:39;;;;;;;4.43;2.25;;;25.20;57.60;;;;;;6181394;28;80536;-62
2021/09/17 10:40:41;;;;;;;11.52;2.53;;;25.20;56.90;;;;;;6171480;28;80498;-62
2021/09/17 10:43:44;;;;;;;3.55;2.28;;;25.10;57.30;;;;;;6182093;28;80405;-62
2021/09/17 10:46:44;;;;;;;6.22;2.58;;;25.10;57.10;;;;;;6182836;28;80131;-62
2021/09/17 10:49:44;;;;;;;2.92;2.30;;;25.20;56.90;;;;;;6180888;28;80814;-62
2021/09/17 10:52:48;;;;;;;3.70;2.50;;;25.10;56.80;;;;;;6179772;28;81107;-62
2021/09/17 10:55:54;;;;;;;4.55;2.60;;;25.10;56.70;;;;;;6172349;28;82592;-62
2021/09/17 10:58:55;;;;;;;3.08;2.50;;;25.10;56.80;;;;;;6181280;28;80934;-62
2021/09/17 11:01:55;;;;;;;5.13;2.40;;;25.10;56.80;;;;;;6180728;28;80711;-63
2021/09/17 11:04:56;;;;;;;3.90;2.65;;;25.10;56.80;;;;;;6176884;28;81982;-62
2021/09/17 11:07:56;;;;;;;2.45;2.10;;;25.10;57.00;;;;;;6172002;28;80558;-63
2021/09/17 11:10:57;;;;;;;3.83;2.08;;;25.10;56.50;;;;;;6180926;28;81001;-63
2021/09/17 11:13:57;;;;;;;4.55;1.85;;;25.10;56.70;;;;;;6182206;28;80348;-62
2021/09/17 11:16:57;;;;;;;2.72;1.77;;;25.10;56.40;;;;;;6181287;28;81829;-63
2021/09/17 11:19:58;;;;;;;3.80;1.95;;;25.10;56.50;;;;;;6181259;28;80504;-63
2021/09/17 11:22:59;;;;;;;6.00;2.00;;;25.10;56.40;;;;;;6171230;28;80722;-63
2021/09/17 11:26:00;;;;;;;4.45;2.35;;;25.10;56.10;;;;;;6172589;28;80619;-63
2021/09/17 11:29:00;;;;;;;4.75;2.13;;;25.10;56.20;;;;;;6181937;28;80927;-63
2021/09/17 11:32:03;;;;;;;5.93;2.85;;;25.10;56.30;;;;;;6180558;28;81022;-63
2021/09/17 11:35:03;;;;;;;6.97;2.40;;;25.10;56.10;;;;;;6175398;28;80667;-63
2021/09/17 11:38:04;;;;;;;2.72;2.30;;;25.10;56.20;;;;;;6185045;28;80618;-64
2021/09/17 11:41:04;;;;;;;6.18;2.33;;;25.10;55.90;;;;;;6190082;28;81423;-63
2021/09/17 11:44:05;;;;;;;3.47;2.38;;;25.10;56.00;;;;;;6187848;28;81274;-62
2021/09/17 11:47:05;;;;;;;3.53;2.60;;;25.10;56.20;;;;;;6190530;28;81091;-63
2021/09/17 11:50:08;;;;;;;4.55;3.40;;;25.10;56.30;;;;;;6189325;28;80964;-60
2021/09/17 11:53:08;;;;;;;4.07;2.40;;;25.10;56.10;;;;;;6187437;28;81210;-62
2021/09/17 11:56:08;;;;;;;4.25;2.50;;;25.10;56.00;;;;;;6187152;28;80773;-62
2021/09/17 11:59:09;;;;;;;5.32;2.88;;;25.10;55.90;;;;;;6181911;28;80162;-61
2021/09/17 12:02:09;;;;;;;4.35;2.80;;;25.00;55.70;;;;;;6185368;28;81309;-61
2021/09/17 12:05:10;;;;;;;3.70;2.50;;;25.00;55.60;;;;;;6187904;28;80457;-62
2021/09/17 12:08:10;;;;;;;4.75;2.67;;;25.00;55.70;;;;;;6183627;28;80365;-61
2021/09/17 12:11:11;;;;;;;4.20;2.95;;;25.00;55.80;;;;;;6175385;28;82343;-61
2021/09/17 12:14:11;;;;;;;4.40;3.00;;;25.00;55.80;;;;;;6180634;28;80569;-61
2021/09/17 12:17:12;;;;;;;6.00;4.15;;;25.00;55.90;;;;;;6175075;28;80154;-61
2021/09/17 12:20:12;;;;;;;7.22;3.20;;;25.00;55.80;;;;;;6182785;28;80409;-62
2021/09/17 12:23:13;;;;;;;4.70;3.40;;;25.00;55.80;;;;;;6183295;28;81331;-61
2021/09/17 12:26:13;;;;;;;4.82;3.90;;;25.00;55.80;;;;;;6180197;28;80732;-63
2021/09/17 12:29:14;;;;;;;5.60;3.75;;;25.00;55.70;;;;;;6179302;28;80329;-62
2021/09/17 12:32:15;;;;;;;4.13;3.20;;;25.00;55.70;;;;;;6181231;28;80822;-63
2021/09/17 12:35:15;;;;;;;5.47;3.85;;;25.00;55.70;;;;;;6185109;28;81457;-63
2021/09/17 12:38:16;;;;;;;6.30;3.85;;;25.00;56.00;;;;;;6185877;28;80615;-64
2021/09/17 12:41:16;;;;;;;9.18;4.03;;;25.00;56.20;;;;;;6184116;28;80834;-63
2021/09/17 12:44:17;;;;;;;6.10;4.25;;;25.00;55.90;;;;;;6184022;28;81979;-63
2021/09/17 12:47:18;;;;;;;10.35;4.45;;;24.90;56.30;;;;;;6174341;28;80793;-64
2021/09/17 12:50:18;;;;;;;9.68;3.85;;;25.00;56.40;;;;;;6181174;28;80529;-62
2021/09/17 12:53:21;;;;;;;26.25;4.30;;;25.00;56.50;;;;;;6181031;28;82258;-62
2021/09/17 12:56:21;;;;;;;9.32;4.43;;;25.00;56.70;;;;;;6180079;28;82006;-63
2021/09/17 12:59:22;;;;;;;8.48;4.70;;;25.00;56.60;;;;;;6180990;28;80495;-62
2021/09/17 13:02:22;;;;;;;5.00;4.18;;;24.90;56.60;;;;;;6182721;28;80265;-62
2021/09/17 13:05:23;;;;;;;8.43;5.05;;;25.00;56.40;;;;;;6185447;28;80387;-63
2021/09/17 13:08:23;;;;;;;8.98;4.78;;;25.00;56.70;;;;;;6181017;28;80533;-62
2021/09/17 13:11:24;;;;;;;6.53;4.63;;;25.00;56.40;;;;;;6179290;28;81002;-62
2021/09/17 13:14:24;;;;;;;8.10;4.40;;;25.00;56.60;;;;;;6180766;28;80411;-63
2021/09/17 13:17:25;;;;;;;6.20;4.35;;;24.90;56.50;;;;;;6182088;28;81027;-63
2021/09/17 13:20:25;;;;;;;8.35;5.80;;;25.00;56.70;;;;;;6184526;28;80961;-63
2021/09/17 13:23:26;;;;;;;7.25;5.15;;;25.00;56.60;;;;;;6184114;28;80589;-63
2021/09/17 13:26:26;;;;;;;6.90;5.38;;;25.00;56.80;;;;;;6180704;28;81574;-63
2021/09/17 13:29:27;;;;;;;5.57;4.70;;;25.00;56.70;;;;;;6174943;28;80697;-62
2021/09/17 13:32:27;;;;;;;6.53;4.63;;;25.00;57.00;;;;;;6173914;28;80441;-63
2021/09/17 13:35:28;;;;;;;5.95;5.00;;;25.00;56.90;;;;;;6181770;28;81623;-65
2021/09/17 13:38:28;;;;;;;5.85;3.80;;;25.00;56.90;;;;;;6179647;28;80143;-63
2021/09/17 13:41:29;;;;;;;9.35;4.97;;;25.00;56.70;;;;;;6178692;28;80362;-63
2021/09/17 13:44:29;;;;;;;8.45;4.88;;;25.00;56.80;;;;;;6176685;28;80921;-64
2021/09/17 13:47:30;;;;;;;5.50;4.57;;;25.00;56.90;;;;;;6181836;28;81170;-65
2021/09/17 13:50:30;;;;;;;7.43;4.15;;;25.00;57.00;;;;;;6174339;28;80464;-65
2021/09/17 13:53:31;;;;;;;5.68;4.35;;;25.00;57.20;;;;;;6186941;28;81401;-66
2021/09/17 13:56:31;;;;;;;8.05;4.57;;;25.00;57.20;;;;;;6175561;28;80448;-63
2021/09/17 13:59:32;;;;;;;7.97;5.13;;;25.00;57.30;;;;;;6182274;28;81091;-64
2021/09/17 14:02:32;;;;;;;8.93;5.40;;;25.00;57.20;;;;;;6185672;28;80205;-64
2021/09/17 14:05:33;;;;;;;6.68;4.82;;;25.00;57.10;;;;;;6180002;28;82135;-64
2021/09/17 14:08:33;;;;;;;7.47;5.45;;;25.00;57.20;;;;;;6173895;28;81049;-66
2021/09/17 14:11:34;;;;;;;10.70;5.53;;;25.00;57.10;;;;;;6180889;28;81336;-64
2021/09/17 14:14:34;;;;;;;54.78;20.08;;;25.00;57.10;;;;;;6180952;28;81004;-65
2021/09/17 14:17:35;;;;;;;307.38;112.93;;;25.00;57.10;;;;;;6175052;28;83151;-65
2021/09/17 14:20:35;;;;;;;459.13;166.77;;;25.00;57.30;;;;;;6175005;28;85794;-64
2021/09/17 14:23:36;;;;;;;451.65;169.45;;;25.00;57.20;;;;;;6169272;28;85907;-62
2021/09/17 14:26:36;;;;;;;413.63;155.73;;;25.00;57.50;;;;;;6168650;28;87207;-62
2021/09/17 14:29:37;;;;;;;508.85;203.40;;;25.00;57.40;;;;;;6155281;28;85624;-62
2021/09/17 14:32:38;;;;;;;577.67;254.75;;;25.00;57.30;;;;;;6169303;28;85479;-62
2021/09/17 14:35:42;;;;;;;706.65;319.08;;;25.00;57.50;;;;;;6177932;28;85469;-63
2021/09/17 14:38:43;;;;;;;582.95;252.93;;;25.00;57.20;;;;;;6161498;28;85765;-62
2021/09/17 14:41:43;;;;;;;522.03;211.20;;;25.00;57.30;;;;;;6175062;28;85497;-62
2021/09/17 14:44:44;;;;;;;435.50;176.80;;;25.00;57.30;;;;;;6176411;28;85895;-62
2021/09/17 14:47:44;;;;;;;389.58;155.43;;;25.00;57.10;;;;;;6172004;28;85626;-62
2021/09/17 14:50:44;;;;;;;332.85;134.60;;;25.00;57.40;;;;;;6174448;28;85703;-63
2021/09/17 14:53:45;;;;;;;317.60;122.53;;;25.00;57.40;;;;;;6171291;28;86411;-63
2021/09/17 14:56:45;;;;;;;240.52;100.32;;;25.00;57.60;;;;;;6162015;28;86107;-63
2021/09/17 14:59:46;;;;;;;223.98;91.07;;;24.90;57.50;;;;;;6174824;28;86536;-63
2021/09/17 15:02:46;;;;;;;204.15;83.47;;;24.90;57.50;;;;;;6177012;28;85197;-62
2021/09/17 15:05:47;;;;;;;183.20;72.80;;;24.90;57.50;;;;;;6177891;28;84610;-62
2021/09/17 15:08:47;;;;;;;154.27;66.68;;;24.90;57.50;;;;;;6177445;28;84658;-62
2021/09/17 15:11:48;;;;;;;146.65;62.22;;;24.90;57.50;;;;;;6175542;28;83022;-62
2021/09/17 15:14:48;;;;;;;136.85;53.47;;;24.90;57.30;;;;;;6170057;28;83553;-62
2021/09/17 15:17:49;;;;;;;122.15;50.40;;;24.90;57.60;;;;;;6176480;28;83422;-63
2021/09/17 15:20:49;;;;;;;102.05;45.33;;;24.90;57.70;;;;;;6177788;28;83128;-62
2021/09/17 15:23:50;;;;;;;111.45;44.65;;;24.90;57.60;;;;;;6176741;28;85018;-62